sensor_id;sensor_type;location;lat;lon;timestamp;temperature;humidity
17891;DHT22;9071;48.220;14.480;2024-02-23T00:01:55;6.60;99.90
17891;DHT22;9071;48.220;14.480;2024-02-23T00:06:57;6.60;99.90
17891;DHT22;9071;48.220;14.480;2024-02-23T00:12:00;6.60;99.90
17891;DHT22;9071;48.220;14.480;2024-02-23T00:17:03;6.60;99.90
17891;DHT22;9071;48.220;14.480;2024-02-23T00:22:05;6.60;99.90
17891;DHT22;9071;48.220;14.480;2024-02-23T00:27:08;6.60;99.90
17891;DHT22;9071;48.220;14.480;2024-02-23T00:32:10;6.50;99.90
17891;DHT22;9071;48.220;14.480;2024-02-23T00:37:12;6.40;99.90
17891;DHT22;9071;48.220;14.480;2024-02-23T00:42:15;6.50;99.90
17891;DHT22;9071;48.220;14.480;2024-02-23T00:47:18;6.60;99.90
17891;DHT22;9071;48.220;14.480;2024-02-23T00:52:20;6.60;99.90
17891;DHT22;9071;48.220;14.480;2024-02-23T00:57:23;6.70;99.90
17891;DHT22;9071;48.220;14.480;2024-02-23T01:02:30;6.70;99.90
17891;DHT22;9071;48.220;14.480;2024-02-23T01:07:32;6.70;99.90
17891;DHT22;9071;48.220;14.480;2024-02-23T01:12:35;6.70;99.90
17891;DHT22;9071;48.220;14.480;2024-02-23T01:17:37;6.80;99.90
17891;DHT22;9071;48.220;14.480;2024-02-23T01:22:39;6.80;99.90
17891;DHT22;9071;48.220;14.480;2024-02-23T01:27:43;6.80;99.90
17891;DHT22;9071;48.220;14.480;2024-02-23T01:32:46;6.90;99.90
17891;DHT22;9071;48.220;14.480;2024-02-23T01:37:48;6.90;99.90
17891;DHT22;9071;48.220;14.480;2024-02-23T01:43:02;7.00;99.90
17891;DHT22;9071;48.220;14.480;2024-02-23T01:48:05;7.10;99.90
17891;DHT22;9071;48.220;14.480;2024-02-23T01:53:07;7.10;99.90
17891;DHT22;9071;48.220;14.480;2024-02-23T01:58:12;7.10;99.90
17891;DHT22;9071;48.220;14.480;2024-02-23T02:03:15;7.10;99.90
17891;DHT22;9071;48.220;14.480;2024-02-23T02:08:17;7.20;99.90
17891;DHT22;9071;48.220;14.480;2024-02-23T02:13:20;7.20;99.90
17891;DHT22;9071;48.220;14.480;2024-02-23T02:18:22;7.20;99.90
17891;DHT22;9071;48.220;14.480;2024-02-23T02:23:24;7.20;99.90
17891;DHT22;9071;48.220;14.480;2024-02-23T02:28:28;7.30;99.90
17891;DHT22;9071;48.220;14.480;2024-02-23T02:33:30;7.40;99.90
17891;DHT22;9071;48.220;14.480;2024-02-23T02:38:33;7.50;99.90
17891;DHT22;9071;48.220;14.480;2024-02-23T02:43:37;7.50;99.90
17891;DHT22;9071;48.220;14.480;2024-02-23T02:48:39;7.50;99.90
17891;DHT22;9071;48.220;14.480;2024-02-23T02:53:41;7.60;99.90
17891;DHT22;9071;48.220;14.480;2024-02-23T02:58:44;7.60;99.90
17891;DHT22;9071;48.220;14.480;2024-02-23T03:03:46;7.60;99.90
17891;DHT22;9071;48.220;14.480;2024-02-23T03:08:48;7.60;99.90
17891;DHT22;9071;48.220;14.480;2024-02-23T03:13:52;7.60;99.90
17891;DHT22;9071;48.220;14.480;2024-02-23T03:18:54;7.60;99.90
17891;DHT22;9071;48.220;14.480;2024-02-23T03:23:56;7.60;99.90
17891;DHT22;9071;48.220;14.480;2024-02-23T03:28:59;7.60;99.90
17891;DHT22;9071;48.220;14.480;2024-02-23T03:34:02;7.60;99.90
17891;DHT22;9071;48.220;14.480;2024-02-23T03:39:04;7.60;99.90
17891;DHT22;9071;48.220;14.480;2024-02-23T03:44:07;7.50;99.90
17891;DHT22;9071;48.220;14.480;2024-02-23T03:49:09;7.60;99.90
17891;DHT22;9071;48.220;14.480;2024-02-23T03:54:12;7.60;99.90
17891;DHT22;9071;48.220;14.480;2024-02-23T03:59:16;7.60;99.90
17891;DHT22;9071;48.220;14.480;2024-02-23T04:04:18;7.60;99.90
17891;DHT22;9071;48.220;14.480;2024-02-23T04:09:20;7.60;99.90
17891;DHT22;9071;48.220;14.480;2024-02-23T04:14:24;7.70;99.90
17891;DHT22;9071;48.220;14.480;2024-02-23T04:19:26;7.60;99.90
17891;DHT22;9071;48.220;14.480;2024-02-23T04:24:28;7.70;99.90
17891;DHT22;9071;48.220;14.480;2024-02-23T04:29:32;7.70;99.90
17891;DHT22;9071;48.220;14.480;2024-02-23T04:34:34;7.80;99.90
17891;DHT22;9071;48.220;14.480;2024-02-23T04:39:36;7.80;99.90
17891;DHT22;9071;48.220;14.480;2024-02-23T04:44:43;7.90;99.90
17891;DHT22;9071;48.220;14.480;2024-02-23T04:49:46;8.00;99.90
17891;DHT22;9071;48.220;14.480;2024-02-23T04:54:50;8.00;99.90
17891;DHT22;9071;48.220;14.480;2024-02-23T04:59:53;8.10;99.90
17891;DHT22;9071;48.220;14.480;2024-02-23T05:04:55;8.10;99.90
17891;DHT22;9071;48.220;14.480;2024-02-23T05:09:58;8.20;99.90
17891;DHT22;9071;48.220;14.480;2024-02-23T05:15:01;8.20;99.90
17891;DHT22;9071;48.220;14.480;2024-02-23T05:20:04;8.20;99.90
17891;DHT22;9071;48.220;14.480;2024-02-23T05:25:09;8.20;99.90
17891;DHT22;9071;48.220;14.480;2024-02-23T05:30:13;8.30;99.90
17891;DHT22;9071;48.220;14.480;2024-02-23T05:35:15;8.30;99.90
17891;DHT22;9071;48.220;14.480;2024-02-23T05:40:18;8.30;99.90
17891;DHT22;9071;48.220;14.480;2024-02-23T05:45:21;8.20;99.90
17891;DHT22;9071;48.220;14.480;2024-02-23T05:50:23;8.20;99.90
17891;DHT22;9071;48.220;14.480;2024-02-23T05:55:25;8.10;99.90
17891;DHT22;9071;48.220;14.480;2024-02-23T06:00:29;8.10;99.90
17891;DHT22;9071;48.220;14.480;2024-02-23T06:05:32;8.00;99.90
17891;DHT22;9071;48.220;14.480;2024-02-23T06:10:34;8.00;99.90
17891;DHT22;9071;48.220;14.480;2024-02-23T06:15:38;8.00;99.90
17891;DHT22;9071;48.220;14.480;2024-02-23T06:20:41;8.00;99.90
17891;DHT22;9071;48.220;14.480;2024-02-23T06:25:43;8.00;99.90
17891;DHT22;9071;48.220;14.480;2024-02-23T06:30:47;7.90;99.90
17891;DHT22;9071;48.220;14.480;2024-02-23T06:35:49;7.60;99.90
17891;DHT22;9071;48.220;14.480;2024-02-23T06:40:51;7.30;99.90
17891;DHT22;9071;48.220;14.480;2024-02-23T06:45:55;7.20;99.90
17891;DHT22;9071;48.220;14.480;2024-02-23T06:50:57;7.10;99.90
17891;DHT22;9071;48.220;14.480;2024-02-23T06:55:59;7.10;99.90
17891;DHT22;9071;48.220;14.480;2024-02-23T07:01:03;7.00;99.90
17891;DHT22;9071;48.220;14.480;2024-02-23T07:06:06;7.00;99.90
17891;DHT22;9071;48.220;14.480;2024-02-23T07:11:10;7.00;99.90
17891;DHT22;9071;48.220;14.480;2024-02-23T07:16:14;7.00;99.90
17891;DHT22;9071;48.220;14.480;2024-02-23T07:21:18;7.00;99.90
17891;DHT22;9071;48.220;14.480;2024-02-23T07:26:20;7.00;99.90
17891;DHT22;9071;48.220;14.480;2024-02-23T07:31:24;6.90;99.90
17891;DHT22;9071;48.220;14.480;2024-02-23T07:36:27;7.00;99.90
17891;DHT22;9071;48.220;14.480;2024-02-23T07:41:29;7.00;99.90
17891;DHT22;9071;48.220;14.480;2024-02-23T07:46:32;7.00;99.90
17891;DHT22;9071;48.220;14.480;2024-02-23T07:51:35;7.00;99.90
17891;DHT22;9071;48.220;14.480;2024-02-23T07:56:37;7.10;99.90
17891;DHT22;9071;48.220;14.480;2024-02-23T08:01:40;7.10;99.90
17891;DHT22;9071;48.220;14.480;2024-02-23T08:06:42;7.20;99.90
17891;DHT22;9071;48.220;14.480;2024-02-23T08:11:44;7.30;99.90
17891;DHT22;9071;48.220;14.480;2024-02-23T08:16:48;7.30;99.90
17891;DHT22;9071;48.220;14.480;2024-02-23T08:21:51;7.30;99.90
17891;DHT22;9071;48.220;14.480;2024-02-23T08:26:53;7.30;99.90
17891;DHT22;9071;48.220;14.480;2024-02-23T08:31:56;7.30;99.90
17891;DHT22;9071;48.220;14.480;2024-02-23T08:36:58;7.40;99.90
17891;DHT22;9071;48.220;14.480;2024-02-23T08:42:00;7.60;99.90
17891;DHT22;9071;48.220;14.480;2024-02-23T08:47:04;7.80;99.90
17891;DHT22;9071;48.220;14.480;2024-02-23T08:52:06;8.00;99.90
17891;DHT22;9071;48.220;14.480;2024-02-23T08:57:08;8.10;99.90
17891;DHT22;9071;48.220;14.480;2024-02-23T09:02:12;8.10;99.90
17891;DHT22;9071;48.220;14.480;2024-02-23T09:07:14;8.30;99.90
17891;DHT22;9071;48.220;14.480;2024-02-23T09:12:16;8.40;99.90
17891;DHT22;9071;48.220;14.480;2024-02-23T09:17:19;8.50;99.90
17891;DHT22;9071;48.220;14.480;2024-02-23T09:22:21;8.70;99.90
17891;DHT22;9071;48.220;14.480;2024-02-23T09:27:24;9.00;99.90
17891;DHT22;9071;48.220;14.480;2024-02-23T09:32:27;9.00;99.90
17891;DHT22;9071;48.220;14.480;2024-02-23T09:37:30;9.00;99.90
17891;DHT22;9071;48.220;14.480;2024-02-23T09:42:33;9.00;99.90
17891;DHT22;9071;48.220;14.480;2024-02-23T09:47:37;9.00;99.90
17891;DHT22;9071;48.220;14.480;2024-02-23T09:52:40;8.80;99.90
17891;DHT22;9071;48.220;14.480;2024-02-23T09:57:42;8.70;99.90
17891;DHT22;9071;48.220;14.480;2024-02-23T10:02:47;8.60;99.90
17891;DHT22;9071;48.220;14.480;2024-02-23T10:07:50;8.60;99.90
17891;DHT22;9071;48.220;14.480;2024-02-23T10:12:54;8.50;99.90
17891;DHT22;9071;48.220;14.480;2024-02-23T10:17:58;8.50;99.90
17891;DHT22;9071;48.220;14.480;2024-02-23T10:23:00;8.40;99.90
17891;DHT22;9071;48.220;14.480;2024-02-23T10:28:02;8.40;99.90
17891;DHT22;9071;48.220;14.480;2024-02-23T10:33:06;8.40;99.90
17891;DHT22;9071;48.220;14.480;2024-02-23T10:38:09;8.60;99.90
17891;DHT22;9071;48.220;14.480;2024-02-23T10:43:12;8.60;99.90
17891;DHT22;9071;48.220;14.480;2024-02-23T10:48:19;8.60;99.90
17891;DHT22;9071;48.220;14.480;2024-02-23T10:53:23;8.60;99.90
17891;DHT22;9071;48.220;14.480;2024-02-23T10:58:26;8.60;99.90
17891;DHT22;9071;48.220;14.480;2024-02-23T11:03:30;8.60;99.90
17891;DHT22;9071;48.220;14.480;2024-02-23T11:08:33;8.50;99.90
17891;DHT22;9071;48.220;14.480;2024-02-23T11:13:37;8.50;99.90
17891;DHT22;9071;48.220;14.480;2024-02-23T11:18:41;8.50;99.90
17891;DHT22;9071;48.220;14.480;2024-02-23T11:23:44;8.30;99.90
17891;DHT22;9071;48.220;14.480;2024-02-23T11:28:48;8.20;99.90
17891;DHT22;9071;48.220;14.480;2024-02-23T11:33:53;8.20;99.90
17891;DHT22;9071;48.220;14.480;2024-02-23T11:38:56;8.20;99.90
17891;DHT22;9071;48.220;14.480;2024-02-23T11:43:59;8.30;99.90
17891;DHT22;9071;48.220;14.480;2024-02-23T11:49:02;8.30;99.90
17891;DHT22;9071;48.220;14.480;2024-02-23T11:54:04;8.40;99.90
17891;DHT22;9071;48.220;14.480;2024-02-23T11:59:08;8.50;99.90
17891;DHT22;9071;48.220;14.480;2024-02-23T12:04:12;8.50;99.90
17891;DHT22;9071;48.220;14.480;2024-02-23T12:09:14;8.60;99.90
17891;DHT22;9071;48.220;14.480;2024-02-23T12:14:16;8.70;99.90
17891;DHT22;9071;48.220;14.480;2024-02-23T12:19:20;8.60;99.90
17891;DHT22;9071;48.220;14.480;2024-02-23T12:24:25;8.60;99.90
17891;DHT22;9071;48.220;14.480;2024-02-23T12:29:28;8.60;99.90
17891;DHT22;9071;48.220;14.480;2024-02-23T12:34:31;8.50;99.90
17891;DHT22;9071;48.220;14.480;2024-02-23T12:39:33;8.40;99.90
17891;DHT22;9071;48.220;14.480;2024-02-23T12:44:35;8.40;99.90
17891;DHT22;9071;48.220;14.480;2024-02-23T12:49:39;8.20;99.90
17891;DHT22;9071;48.220;14.480;2024-02-23T12:54:41;8.20;99.90
17891;DHT22;9071;48.220;14.480;2024-02-23T12:59:43;8.20;99.90
17891;DHT22;9071;48.220;14.480;2024-02-23T13:04:47;8.20;99.90
17891;DHT22;9071;48.220;14.480;2024-02-23T13:09:50;8.10;99.90
17891;DHT22;9071;48.220;14.480;2024-02-23T13:14:52;8.00;99.90
17891;DHT22;9071;48.220;14.480;2024-02-23T13:19:55;7.90;99.90
17891;DHT22;9071;48.220;14.480;2024-02-23T13:24:57;7.60;99.90
17891;DHT22;9071;48.220;14.480;2024-02-23T13:29:59;7.50;99.90
17891;DHT22;9071;48.220;14.480;2024-02-23T13:35:03;7.40;99.90
17891;DHT22;9071;48.220;14.480;2024-02-23T13:40:08;7.30;99.90
17891;DHT22;9071;48.220;14.480;2024-02-23T13:45:10;7.30;99.90
17891;DHT22;9071;48.220;14.480;2024-02-23T13:50:16;7.20;99.90
17891;DHT22;9071;48.220;14.480;2024-02-23T13:55:18;7.10;99.90
17891;DHT22;9071;48.220;14.480;2024-02-23T14:00:21;7.20;99.90
17891;DHT22;9071;48.220;14.480;2024-02-23T14:05:24;7.20;99.90
17891;DHT22;9071;48.220;14.480;2024-02-23T14:10:27;7.20;99.90
17891;DHT22;9071;48.220;14.480;2024-02-23T14:15:29;7.10;99.90
17891;DHT22;9071;48.220;14.480;2024-02-23T14:20:32;6.90;99.90
17891;DHT22;9071;48.220;14.480;2024-02-23T14:25:34;6.80;99.90
17891;DHT22;9071;48.220;14.480;2024-02-23T14:30:36;6.80;99.90
17891;DHT22;9071;48.220;14.480;2024-02-23T14:35:40;6.80;99.90
17891;DHT22;9071;48.220;14.480;2024-02-23T14:40:42;6.80;99.90
17891;DHT22;9071;48.220;14.480;2024-02-23T14:45:44;6.60;99.90
17891;DHT22;9071;48.220;14.480;2024-02-23T14:50:47;6.40;99.90
17891;DHT22;9071;48.220;14.480;2024-02-23T14:55:49;6.30;99.90
17891;DHT22;9071;48.220;14.480;2024-02-23T15:00:53;6.30;99.90
17891;DHT22;9071;48.220;14.480;2024-02-23T15:05:56;6.20;99.90
17891;DHT22;9071;48.220;14.480;2024-02-23T15:10:58;6.20;99.90
17891;DHT22;9071;48.220;14.480;2024-02-23T15:16:00;6.00;99.90
17891;DHT22;9071;48.220;14.480;2024-02-23T15:21:04;6.00;99.90
17891;DHT22;9071;48.220;14.480;2024-02-23T15:26:06;5.90;99.90
17891;DHT22;9071;48.220;14.480;2024-02-23T15:31:08;5.80;99.90
17891;DHT22;9071;48.220;14.480;2024-02-23T15:36:11;5.80;99.90
17891;DHT22;9071;48.220;14.480;2024-02-23T15:41:16;5.70;99.90
17891;DHT22;9071;48.220;14.480;2024-02-23T15:46:18;5.60;99.90
17891;DHT22;9071;48.220;14.480;2024-02-23T15:51:21;5.60;99.90
17891;DHT22;9071;48.220;14.480;2024-02-23T15:56:23;5.40;99.90
17891;DHT22;9071;48.220;14.480;2024-02-23T16:01:25;5.40;99.90
17891;DHT22;9071;48.220;14.480;2024-02-23T16:06:29;5.30;99.90
17891;DHT22;9071;48.220;14.480;2024-02-23T16:11:35;5.30;99.90
17891;DHT22;9071;48.220;14.480;2024-02-23T16:16:37;5.30;99.90
17891;DHT22;9071;48.220;14.480;2024-02-23T16:21:43;5.20;99.90
17891;DHT22;9071;48.220;14.480;2024-02-23T16:26:46;5.20;99.90
17891;DHT22;9071;48.220;14.480;2024-02-23T16:31:48;5.20;99.90
17891;DHT22;9071;48.220;14.480;2024-02-23T16:36:52;5.20;99.90
17891;DHT22;9071;48.220;14.480;2024-02-23T16:41:54;5.10;99.90
17891;DHT22;9071;48.220;14.480;2024-02-23T16:46:56;5.00;99.90
17891;DHT22;9071;48.220;14.480;2024-02-23T16:52:00;5.00;99.90
17891;DHT22;9071;48.220;14.480;2024-02-23T16:57:02;4.90;99.90
17891;DHT22;9071;48.220;14.480;2024-02-23T17:02:04;4.90;99.90
17891;DHT22;9071;48.220;14.480;2024-02-23T17:07:08;4.80;99.90
17891;DHT22;9071;48.220;14.480;2024-02-23T17:12:10;4.80;99.90
17891;DHT22;9071;48.220;14.480;2024-02-23T17:17:12;4.70;99.90
17891;DHT22;9071;48.220;14.480;2024-02-23T17:22:15;4.70;99.90
17891;DHT22;9071;48.220;14.480;2024-02-23T17:27:17;4.60;99.90
17891;DHT22;9071;48.220;14.480;2024-02-23T17:32:19;4.50;99.90
17891;DHT22;9071;48.220;14.480;2024-02-23T17:37:23;4.40;99.90
17891;DHT22;9071;48.220;14.480;2024-02-23T17:42:25;4.30;99.90
17891;DHT22;9071;48.220;14.480;2024-02-23T17:47:27;4.20;99.90
17891;DHT22;9071;48.220;14.480;2024-02-23T17:52:31;4.20;99.90
17891;DHT22;9071;48.220;14.480;2024-02-23T17:57:33;4.10;99.90
17891;DHT22;9071;48.220;14.480;2024-02-23T18:02:35;4.10;99.90
17891;DHT22;9071;48.220;14.480;2024-02-23T18:07:38;4.10;99.90
17891;DHT22;9071;48.220;14.480;2024-02-23T18:12:40;4.10;99.90
17891;DHT22;9071;48.220;14.480;2024-02-23T18:17:42;4.00;99.90
17891;DHT22;9071;48.220;14.480;2024-02-23T18:22:45;4.00;99.90
17891;DHT22;9071;48.220;14.480;2024-02-23T18:27:47;4.00;99.90
17891;DHT22;9071;48.220;14.480;2024-02-23T18:32:50;4.00;99.90
17891;DHT22;9071;48.220;14.480;2024-02-23T18:37:53;4.00;99.90
17891;DHT22;9071;48.220;14.480;2024-02-23T18:42:55;4.00;99.90
17891;DHT22;9071;48.220;14.480;2024-02-23T18:47:57;3.90;99.90
17891;DHT22;9071;48.220;14.480;2024-02-23T18:53:01;3.80;99.90
17891;DHT22;9071;48.220;14.480;2024-02-23T18:58:03;3.80;99.90
17891;DHT22;9071;48.220;14.480;2024-02-23T19:03:05;3.70;99.90
17891;DHT22;9071;48.220;14.480;2024-02-23T19:08:09;3.70;99.90
17891;DHT22;9071;48.220;14.480;2024-02-23T19:13:11;3.70;99.90
17891;DHT22;9071;48.220;14.480;2024-02-23T19:18:13;3.60;99.90
17891;DHT22;9071;48.220;14.480;2024-02-23T19:23:16;3.50;99.90
17891;DHT22;9071;48.220;14.480;2024-02-23T19:28:18;3.40;99.90
17891;DHT22;9071;48.220;14.480;2024-02-23T19:33:20;3.30;99.90
17891;DHT22;9071;48.220;14.480;2024-02-23T19:38:24;3.20;99.90
17891;DHT22;9071;48.220;14.480;2024-02-23T19:43:27;3.20;99.90
17891;DHT22;9071;48.220;14.480;2024-02-23T19:48:29;3.20;99.90
17891;DHT22;9071;48.220;14.480;2024-02-23T19:53:34;3.10;99.90
17891;DHT22;9071;48.220;14.480;2024-02-23T19:58:36;3.00;99.90
17891;DHT22;9071;48.220;14.480;2024-02-23T20:03:38;2.90;99.90
17891;DHT22;9071;48.220;14.480;2024-02-23T20:08:42;2.90;99.90
17891;DHT22;9071;48.220;14.480;2024-02-23T20:13:44;2.80;99.90
17891;DHT22;9071;48.220;14.480;2024-02-23T20:18:47;2.70;99.90
17891;DHT22;9071;48.220;14.480;2024-02-23T20:23:50;2.60;99.90
17891;DHT22;9071;48.220;14.480;2024-02-23T20:28:52;2.50;99.90
17891;DHT22;9071;48.220;14.480;2024-02-23T20:33:54;2.40;99.90
17891;DHT22;9071;48.220;14.480;2024-02-23T20:38:58;2.30;99.90
17891;DHT22;9071;48.220;14.480;2024-02-23T20:44:00;2.20;99.90
17891;DHT22;9071;48.220;14.480;2024-02-23T20:49:02;2.20;99.90
17891;DHT22;9071;48.220;14.480;2024-02-23T20:54:05;2.10;99.90
17891;DHT22;9071;48.220;14.480;2024-02-23T20:59:08;2.10;99.90
17891;DHT22;9071;48.220;14.480;2024-02-23T21:04:10;2.10;99.90
17891;DHT22;9071;48.220;14.480;2024-02-23T21:09:14;2.20;99.90
17891;DHT22;9071;48.220;14.480;2024-02-23T21:14:17;2.20;99.90
17891;DHT22;9071;48.220;14.480;2024-02-23T21:19:19;2.20;99.90
17891;DHT22;9071;48.220;14.480;2024-02-23T21:24:22;2.20;99.90
17891;DHT22;9071;48.220;14.480;2024-02-23T21:29:24;2.10;99.90
17891;DHT22;9071;48.220;14.480;2024-02-23T21:34:26;2.00;99.90
17891;DHT22;9071;48.220;14.480;2024-02-23T21:39:29;1.90;99.90
17891;DHT22;9071;48.220;14.480;2024-02-23T21:44:32;1.90;99.90
17891;DHT22;9071;48.220;14.480;2024-02-23T21:49:34;1.90;99.90
17891;DHT22;9071;48.220;14.480;2024-02-23T21:54:39;1.90;99.90
17891;DHT22;9071;48.220;14.480;2024-02-23T21:59:41;1.90;99.90
17891;DHT22;9071;48.220;14.480;2024-02-23T22:04:43;2.00;99.90
17891;DHT22;9071;48.220;14.480;2024-02-23T22:09:46;2.00;99.90
17891;DHT22;9071;48.220;14.480;2024-02-23T22:14:54;2.00;99.90
17891;DHT22;9071;48.220;14.480;2024-02-23T22:19:56;2.00;99.90
17891;DHT22;9071;48.220;14.480;2024-02-23T22:25:00;2.00;99.90
17891;DHT22;9071;48.220;14.480;2024-02-23T22:30:03;2.10;99.90
17891;DHT22;9071;48.220;14.480;2024-02-23T22:35:08;2.10;99.90
17891;DHT22;9071;48.220;14.480;2024-02-23T22:40:12;2.10;99.90
17891;DHT22;9071;48.220;14.480;2024-02-23T22:45:14;2.20;99.90
17891;DHT22;9071;48.220;14.480;2024-02-23T22:50:17;2.30;99.90
17891;DHT22;9071;48.220;14.480;2024-02-23T22:55:21;2.30;99.90
17891;DHT22;9071;48.220;14.480;2024-02-23T23:00:23;2.30;99.90
17891;DHT22;9071;48.220;14.480;2024-02-23T23:05:25;2.30;99.90
17891;DHT22;9071;48.220;14.480;2024-02-23T23:10:30;2.30;99.90
17891;DHT22;9071;48.220;14.480;2024-02-23T23:15:32;2.30;99.90
17891;DHT22;9071;48.220;14.480;2024-02-23T23:20:35;2.30;99.90
17891;DHT22;9071;48.220;14.480;2024-02-23T23:25:38;2.40;99.90
17891;DHT22;9071;48.220;14.480;2024-02-23T23:30:40;2.40;99.90
17891;DHT22;9071;48.220;14.480;2024-02-23T23:35:42;2.40;99.90
17891;DHT22;9071;48.220;14.480;2024-02-23T23:40:46;2.40;99.90
17891;DHT22;9071;48.220;14.480;2024-02-23T23:45:48;2.40;99.90
17891;DHT22;9071;48.220;14.480;2024-02-23T23:50:50;2.50;99.90
17891;DHT22;9071;48.220;14.480;2024-02-23T23:55:54;2.50;99.90
